createdAt,value
2022-12-12T04:17:52.347Z,1.95
2022-12-12T04:21:13.687Z,0.65
2022-12-12T04:24:38.757Z,1.40
2022-12-12T04:27:46.815Z,1.17
2022-12-12T04:30:49.275Z,1.20
2022-12-12T04:33:58.114Z,0.60
2022-12-12T04:37:01.564Z,2.10
2022-12-12T04:40:07.783Z,1.12
2022-12-12T04:43:21.633Z,2.07
2022-12-12T04:46:28.579Z,0.85
2022-12-12T04:49:33.510Z,2.37
2022-12-12T04:52:39.009Z,0.85
2022-12-12T04:55:47.225Z,0.73
2022-12-12T04:58:49.649Z,1.30
2022-12-12T05:02:17.493Z,0.68
2022-12-12T05:05:54.961Z,0.73
2022-12-12T05:08:57.966Z,0.67
2022-12-12T05:12:00.285Z,1.02
2022-12-12T05:15:02.884Z,1.00
2022-12-12T05:18:08.762Z,0.30
2022-12-12T05:21:11.469Z,3.15
2022-12-12T05:24:13.808Z,0.37
2022-12-12T05:27:15.905Z,0.88
2022-12-12T05:30:18.368Z,1.15
2022-12-12T05:33:20.455Z,1.85
2022-12-12T05:36:22.898Z,1.67
2022-12-12T05:39:24.944Z,1.67
2022-12-12T05:42:27.393Z,1.85
2022-12-12T05:45:29.513Z,1.12
2022-12-12T05:48:32.795Z,1.20
2022-12-12T05:51:34.940Z,0.62
2022-12-12T05:54:37.287Z,0.50
2022-12-12T05:57:40.292Z,1.45
2022-12-12T06:00:42.624Z,0.45
2022-12-12T06:03:44.995Z,1.30
2022-12-12T06:06:47.084Z,0.62
2022-12-12T06:09:50.680Z,2.05
2022-12-12T06:12:52.743Z,0.57
2022-12-12T06:15:55.270Z,3.40
2022-12-12T06:18:57.413Z,0.40
2022-12-12T06:21:59.931Z,1.35
2022-12-12T06:25:02.504Z,0.47
2022-12-12T06:28:05.165Z,1.25
2022-12-12T06:31:11.744Z,1.00
2022-12-12T06:34:14.754Z,0.30
2022-12-12T06:37:17.625Z,1.17
2022-12-12T06:40:20.156Z,2.35
2022-12-12T06:43:24.101Z,0.30
2022-12-12T06:46:28.366Z,3.37
2022-12-12T06:49:30.836Z,1.05
2022-12-12T06:52:33.258Z,1.00
2022-12-12T06:55:35.478Z,1.70
2022-12-12T06:58:38.212Z,0.52
2022-12-12T07:01:40.966Z,1.20
2022-12-12T07:04:43.656Z,1.08
2022-12-12T07:07:45.765Z,1.70
2022-12-12T07:10:48.549Z,1.70
2022-12-12T07:13:51.861Z,0.43
2022-12-12T07:16:54.243Z,264.75
2022-12-12T07:19:56.303Z,268.58
2022-12-12T07:22:58.679Z,260.75
2022-12-12T07:26:04.873Z,263.30
2022-12-12T07:29:07.264Z,261.42
2022-12-12T07:32:09.345Z,254.32
2022-12-12T07:35:11.930Z,262.35
2022-12-12T07:38:14.279Z,261.80
2022-12-12T07:41:18.848Z,268.92
2022-12-12T07:44:22.745Z,268.05
2022-12-12T07:47:25.123Z,263.12
2022-12-12T07:50:27.193Z,270.10
2022-12-12T07:53:30.004Z,274.08
2022-12-12T07:56:32.176Z,272.88
2022-12-12T07:59:35.773Z,270.98
2022-12-12T08:02:37.873Z,272.27
2022-12-12T08:05:41.127Z,269.95
2022-12-12T08:08:43.969Z,270.25
2022-12-12T08:11:46.752Z,271.20
2022-12-12T08:14:49.270Z,273.13
2022-12-12T08:17:51.698Z,277.42
2022-12-12T08:20:53.744Z,270.42
2022-12-12T08:24:01.261Z,275.45
2022-12-12T08:27:03.667Z,273.33
2022-12-12T08:30:06.574Z,285.15
2022-12-12T08:33:08.647Z,284.23
2022-12-12T08:36:16.668Z,285.65
2022-12-12T08:39:18.847Z,285.58
2022-12-12T08:42:21.176Z,281.92
2022-12-12T08:45:23.231Z,283.40
2022-12-12T08:48:25.625Z,279.13
2022-12-12T08:51:27.743Z,277.75
2022-12-12T08:54:30.050Z,277.42
2022-12-12T08:57:32.151Z,273.55
2022-12-12T09:00:34.554Z,273.35
2022-12-12T09:03:36.644Z,273.05
2022-12-12T09:06:38.964Z,276.65
2022-12-12T09:09:41.020Z,272.30
2022-12-12T09:12:43.328Z,274.65
2022-12-12T09:15:45.464Z,266.75
2022-12-12T09:18:49.245Z,268.40
2022-12-12T09:21:51.529Z,273.10
2022-12-12T09:24:53.917Z,273.48
2022-12-12T09:27:56.311Z,279.73
2022-12-12T09:30:58.852Z,268.65
2022-12-12T09:34:01.071Z,265.67
2022-12-12T09:37:04.047Z,276.85
2022-12-12T09:40:06.632Z,276.92
2022-12-12T09:43:16.038Z,270.67
2022-12-12T09:46:26.171Z,276.75
2022-12-12T09:49:50.580Z,270.92
2022-12-12T09:52:57.263Z,268.17
2022-12-12T09:56:17.957Z,265.55
2022-12-12T09:59:35.520Z,265.62
2022-12-12T10:03:05.942Z,267.70
2022-12-12T10:06:36.422Z,269.52
2022-12-12T10:09:45.375Z,274.25
2022-12-12T10:12:48.655Z,270.42
2022-12-12T10:16:14.772Z,271.75
2022-12-12T10:19:27.533Z,276.30
2022-12-12T10:22:43.581Z,280.05
2022-12-12T10:26:10.346Z,269.67
2022-12-12T10:29:18.544Z,275.02
2022-12-12T10:32:33.486Z,281.38
2022-12-12T10:35:46.773Z,281.15
2022-12-12T10:39:12.014Z,277.98
2022-12-12T10:42:26.057Z,277.02
2022-12-12T10:45:40.637Z,277.02
2022-12-12T10:48:43.217Z,294.37
2022-12-12T10:51:47.857Z,274.37
2022-12-12T10:54:59.291Z,276.40
2022-12-12T10:58:04.137Z,276.33
2022-12-12T11:02:00.495Z,284.23
2022-12-12T11:05:08.348Z,281.30
2022-12-12T11:08:26.194Z,274.73
2022-12-12T11:11:29.090Z,281.55
2022-12-12T11:14:35.916Z,279.17
2022-12-12T11:17:40.713Z,282.52
2022-12-12T11:20:50.789Z,279.60
2022-12-12T11:23:57.338Z,286.95
2022-12-12T11:27:03.021Z,284.45
2022-12-12T11:30:22.484Z,279.87
2022-12-12T11:33:33.730Z,283.77
2022-12-12T11:36:38.786Z,287.65
2022-12-12T11:39:45.002Z,279.60
2022-12-12T11:42:47.437Z,279.92
2022-12-12T11:46:16.191Z,277.87
2022-12-12T11:49:20.174Z,280.08
2022-12-12T11:52:40.174Z,275.98
2022-12-12T11:55:57.739Z,284.10
2022-12-12T11:59:18.383Z,277.67
2022-12-12T12:02:43.874Z,272.27
2022-12-12T12:05:54.984Z,272.40
2022-12-12T12:09:19.089Z,278.60
2022-12-12T12:12:26.326Z,270.12
2022-12-12T12:15:39.882Z,272.37
2022-12-12T12:19:08.644Z,275.45
2022-12-12T12:22:39.745Z,267.55
2022-12-12T12:25:56.998Z,275.90
2022-12-12T12:29:30.016Z,267.90
2022-12-12T12:32:55.141Z,275.42
2022-12-12T12:36:21.316Z,270.73
2022-12-12T12:40:00.540Z,269.50
2022-12-12T12:43:29.107Z,265.77
2022-12-12T12:46:45.168Z,266.08
2022-12-12T12:49:55.010Z,267.83
2022-12-12T12:53:05.268Z,268.37
2022-12-12T12:57:06.199Z,266.63
2022-12-12T13:00:15.956Z,266.92
2022-12-12T13:03:24.577Z,264.65
2022-12-12T13:06:52.869Z,270.15
2022-12-12T13:10:06.531Z,272.20
2022-12-12T13:13:28.058Z,270.00
2022-12-12T13:16:33.365Z,274.10
2022-12-12T13:19:35.737Z,273.48
2022-12-12T13:22:58.911Z,282.75
2022-12-12T13:26:01.157Z,274.30
2022-12-12T13:29:23.424Z,274.92
2022-12-12T13:32:53.729Z,279.65
2022-12-12T13:36:07.560Z,274.42
2022-12-12T13:39:24.968Z,275.23
2022-12-12T13:42:52.976Z,279.77
2022-12-12T13:45:55.736Z,275.25
2022-12-12T13:49:07.052Z,281.75
2022-12-12T13:52:32.824Z,272.75
2022-12-12T13:55:36.120Z,268.50
2022-12-12T13:58:38.494Z,273.00
2022-12-12T14:01:40.903Z,272.92
2022-12-12T14:04:44.544Z,270.12
2022-12-12T14:07:53.381Z,274.33
2022-12-12T14:11:06.201Z,273.13
2022-12-12T14:14:19.751Z,265.35
2022-12-12T14:17:24.629Z,271.50
2022-12-12T14:20:36.240Z,269.67
2022-12-12T14:23:44.961Z,270.55
2022-12-12T14:26:48.762Z,270.85
2022-12-12T14:29:51.228Z,271.52
2022-12-12T14:33:09.519Z,274.62
2022-12-12T14:36:30.634Z,269.70
2022-12-12T14:39:46.193Z,272.27
2022-12-12T14:43:18.858Z,273.67
2022-12-12T14:46:24.623Z,271.65
2022-12-12T14:49:27.081Z,277.92
2022-12-12T14:52:29.259Z,274.50
2022-12-12T14:55:31.715Z,279.00
2022-12-12T14:58:36.780Z,270.55
2022-12-12T15:01:49.798Z,271.62
2022-12-12T15:05:04.196Z,270.52
2022-12-12T15:08:19.163Z,267.73
2022-12-12T15:11:27.847Z,276.35
2022-12-12T15:14:30.219Z,275.52
2022-12-12T15:17:37.497Z,275.92
2022-12-12T15:20:39.820Z,277.98
2022-12-12T15:23:42.594Z,270.42
2022-12-12T15:26:46.436Z,272.65
2022-12-12T15:29:48.915Z,279.63
2022-12-12T15:32:51.417Z,286.58
2022-12-12T15:36:01.866Z,283.15
2022-12-12T15:39:13.996Z,289.30
2022-12-12T15:42:16.181Z,277.17
2022-12-12T15:45:30.243Z,279.70
2022-12-12T15:48:32.548Z,277.60
2022-12-12T15:51:34.876Z,278.30
2022-12-12T15:54:37.554Z,269.37
2022-12-12T15:57:48.454Z,279.77
2022-12-12T16:00:52.485Z,279.23
2022-12-12T16:03:56.113Z,275.70
2022-12-12T16:07:15.322Z,276.27
2022-12-12T16:10:17.543Z,277.15
2022-12-12T16:13:26.140Z,277.83
